Addy, Washington
Current Conditions -  °F | °C
As of 9:07 PM on Wednesday 26 Nov 2014 (Local Time) from KDEW Reporting Station
Moderate Fog Moderate Fog  
Wind Chill: 35°   Ceiling: 9000
Heat Index: 35°   Visibility: 0.5mi
Dew Point: 35°   Wind: 0mph
Humidity: 100%   Direction: NA
Pressure: 30.01"   Gusts: NA
Location:  48.36°N, 117.84°W
Report Text: KDEW 270507Z AUTO 00000KT 1/2SM FG FEW002 BKN090 OVC120 02/02 A3001 RMK AO2 T00170017
Loading
Personal Weather Stations






























Interactive Weather Map New forecast layout! Learn more

10-Day Weather Forecast

Advertisements
Track Severe Weather on mobile